Time;durP1;ratioP1;P1;durP2;ratioP2;P2;SDS_P1;SDS_P2;PMS_P1;PMS_P2;Temp;Humidity;BMP_temperature;BMP_pressure;BME280_temperature;BME280_humidity;BME280_pressure;Samples;Min_cycle;Max_cycle;Signal;HPM_P1;HPM_P2
2024/01/05 00:01:25;;;;;;;5.30;4.30;;;8.90;76.50;;;;;;5135536;27;20035;-81
2024/01/05 00:03:51;;;;;;;4.60;3.78;;;9.00;76.50;;;;;;5117480;27;20099;-81
2024/01/05 00:06:17;;;;;;;4.82;4.32;;;8.90;76.50;;;;;;5117493;27;20023;-81
2024/01/05 00:08:43;;;;;;;4.93;3.80;;;8.90;76.50;;;;;;5136165;27;20053;-82
2024/01/05 00:11:08;;;;;;;5.03;4.10;;;8.90;76.50;;;;;;5136271;27;20027;-80
2024/01/05 00:13:34;;;;;;;4.60;3.90;;;8.90;76.50;;;;;;5135961;27;20033;-81
2024/01/05 00:16:00;;;;;;;5.72;3.97;;;8.90;76.50;;;;;;5135291;27;20025;-80
2024/01/05 00:18:26;;;;;;;5.90;4.60;;;8.90;76.50;;;;;;5136015;27;20051;-81
2024/01/05 00:20:51;;;;;;;4.35;3.80;;;8.90;76.50;;;;;;5135766;27;20526;-80
2024/01/05 00:23:17;;;;;;;5.18;4.43;;;8.90;76.50;;;;;;5136090;27;20054;-80
2024/01/05 00:25:43;;;;;;;4.68;4.10;;;8.90;76.50;;;;;;5135067;27;20022;-81
2024/01/05 00:28:09;;;;;;;5.75;4.03;;;8.80;76.40;;;;;;5130112;27;20032;-81
2024/01/05 00:30:35;;;;;;;5.07;4.32;;;8.80;76.30;;;;;;5115017;28;20093;-81
2024/01/05 00:33:01;;;;;;;6.50;4.38;;;8.80;76.40;;;;;;5114573;28;20027;-81
2024/01/05 00:35:26;;;;;;;5.57;4.20;;;8.80;76.40;;;;;;5115224;27;20032;-79
2024/01/05 00:37:52;;;;;;;5.07;4.03;;;8.80;76.40;;;;;;5129318;27;20465;-81
2024/01/05 00:40:18;;;;;;;6.40;4.25;;;8.80;76.40;;;;;;5117949;27;20072;-80
2024/01/05 00:42:45;;;;;;;4.80;3.85;;;8.80;76.40;;;;;;5130410;27;20023;-81
2024/01/05 00:45:10;;;;;;;5.57;4.15;;;8.70;76.90;;;;;;5125638;27;20019;-81
2024/01/05 00:47:36;;;;;;;4.68;4.00;;;8.80;76.40;;;;;;5132893;27;20031;-82
2024/01/05 00:50:03;;;;;;;5.47;4.25;;;8.70;76.30;;;;;;5116513;28;20023;-80
2024/01/05 00:52:28;;;;;;;5.53;4.45;;;8.70;76.40;;;;;;5116780;27;20035;-81
2024/01/05 00:54:54;;;;;;;5.13;3.90;;;8.70;76.40;;;;;;5128433;27;20093;-81
2024/01/05 00:57:20;;;;;;;4.85;3.90;;;8.70;76.40;;;;;;5114736;28;20457;-80
2024/01/05 00:59:46;;;;;;;4.97;4.03;;;8.70;76.50;;;;;;5114530;28;20032;-81
2024/01/05 01:02:11;;;;;;;5.72;4.30;;;8.70;76.40;;;;;;5114141;28;20505;-81
2024/01/05 01:04:37;;;;;;;5.53;4.05;;;8.70;76.40;;;;;;5101559;28;20111;-81
2024/01/05 01:07:03;;;;;;;4.60;3.80;;;8.70;76.40;;;;;;5112398;28;20030;-80
2024/01/05 01:09:29;;;;;;;5.75;4.30;;;8.60;76.30;;;;;;5103489;28;20024;-81
2024/01/05 01:11:54;;;;;;;4.72;3.90;;;8.70;76.40;;;;;;5119776;27;20038;-80
2024/01/05 01:14:20;;;;;;;5.15;3.80;;;8.60;76.30;;;;;;5133805;27;20389;-80
2024/01/05 01:16:46;;;;;;;5.15;4.03;;;8.70;76.30;;;;;;5118361;27;20473;-81
2024/01/05 01:19:12;;;;;;;5.43;4.10;;;8.70;76.30;;;;;;5120767;27;20107;-81
2024/01/05 01:21:37;;;;;;;5.53;4.13;;;8.70;76.30;;;;;;5118343;28;20038;-81
2024/01/05 01:24:04;;;;;;;4.78;3.70;;;8.60;76.30;;;;;;5120533;27;20034;-81
2024/01/05 01:26:30;;;;;;;4.72;3.88;;;8.70;76.40;;;;;;5120711;27;20019;-82
2024/01/05 01:28:55;;;;;;;4.20;3.60;;;8.70;76.30;;;;;;5120384;27;20466;-81
2024/01/05 01:31:21;;;;;;;4.78;3.88;;;8.70;76.40;;;;;;5120753;27;20036;-81
2024/01/05 01:33:47;;;;;;;4.13;3.40;;;8.70;76.30;;;;;;5099788;28;20038;-81
2024/01/05 01:36:13;;;;;;;3.95;3.30;;;8.70;76.30;;;;;;5136514;27;20110;-80
2024/01/05 01:38:38;;;;;;;4.90;3.60;;;8.70;76.30;;;;;;5138527;27;20116;-82
2024/01/05 01:41:04;;;;;;;4.43;3.22;;;8.60;76.30;;;;;;5138677;27;20076;-81
2024/01/05 01:43:30;;;;;;;4.10;2.95;;;8.60;76.30;;;;;;5138477;27;20026;-81
2024/01/05 01:45:57;;;;;;;3.63;3.13;;;8.70;76.40;;;;;;5137898;27;20023;-80
2024/01/05 01:48:24;;;;;;;3.47;3.03;;;8.70;76.30;;;;;;5139559;27;20346;-81
2024/01/05 01:50:52;;;;;;;3.85;3.10;;;8.70;76.30;;;;;;5139090;27;20449;-83
2024/01/05 01:53:21;;;;;;;4.32;3.22;;;8.70;76.30;;;;;;5120387;27;20080;-81
2024/01/05 01:55:48;;;;;;;2.92;2.65;;;8.70;76.30;;;;;;5124559;27;20051;-81
2024/01/05 01:58:16;;;;;;;4.00;3.08;;;8.70;76.30;;;;;;5116508;28;20038;-82
2024/01/05 02:00:44;;;;;;;4.10;3.33;;;8.60;76.20;;;;;;5117749;28;20035;-82
2024/01/05 02:03:10;;;;;;;3.38;2.80;;;8.70;76.30;;;;;;5117955;28;20156;-81
2024/01/05 02:05:37;;;;;;;3.15;2.60;;;8.70;76.30;;;;;;5116249;28;20069;-80
2024/01/05 02:08:03;;;;;;;2.90;2.60;;;8.70;76.30;;;;;;5101121;27;20027;-80
2024/01/05 02:10:29;;;;;;;3.00;2.70;;;8.70;76.30;;;;;;5125033;27;20055;-80
2024/01/05 02:12:56;;;;;;;3.00;2.70;;;8.60;76.20;;;;;;5130639;27;20393;-79
2024/01/05 02:15:22;;;;;;;3.05;2.75;;;8.60;76.20;;;;;;5131035;27;20039;-80
2024/01/05 02:17:48;;;;;;;2.95;2.65;;;8.60;76.20;;;;;;5105873;27;20525;-81
2024/01/05 02:20:14;;;;;;;3.80;2.75;;;8.60;76.20;;;;;;5113522;28;20116;-81
2024/01/05 02:22:47;;;;;;;3.10;2.58;;;8.60;76.20;;;;;;5120044;27;20050;-80
2024/01/05 02:25:13;;;;;;;2.95;2.65;;;8.60;76.20;;;;;;5111278;27;20058;-80
2024/01/05 02:27:39;;;;;;;3.10;2.80;;;8.60;76.20;;;;;;5135040;27;20059;-81
2024/01/05 02:30:05;;;;;;;3.08;2.78;;;8.60;76.50;;;;;;5113896;27;20026;-81
2024/01/05 02:32:31;;;;;;;3.30;2.80;;;8.70;76.30;;;;;;5125910;27;20031;-81
2024/01/05 02:34:57;;;;;;;3.22;2.72;;;8.60;76.20;;;;;;5119050;27;20366;-82
2024/01/05 02:37:23;;;;;;;2.70;2.50;;;8.60;76.20;;;;;;5137099;27;20027;-81
2024/01/05 02:39:49;;;;;;;3.17;2.88;;;8.70;76.30;;;;;;5125568;27;20034;-80
2024/01/05 02:42:15;;;;;;;3.13;2.75;;;8.60;76.20;;;;;;5137093;27;20461;-80
2024/01/05 02:44:41;;;;;;;2.60;2.40;;;8.60;76.20;;;;;;5114113;27;20033;-81
2024/01/05 02:47:07;;;;;;;3.00;2.70;;;8.70;76.20;;;;;;5137248;27;20103;-81
2024/01/05 02:49:32;;;;;;;3.20;2.70;;;8.60;76.20;;;;;;5125298;27;20023;-81
2024/01/05 02:51:58;;;;;;;2.80;2.50;;;8.70;76.30;;;;;;5137176;27;20059;-80
2024/01/05 02:54:24;;;;;;;2.50;2.30;;;8.70;76.30;;;;;;5105946;27;20027;-80
2024/01/05 02:56:50;;;;;;;2.60;2.40;;;8.60;76.20;;;;;;5133255;27;20031;-81
2024/01/05 02:59:16;;;;;;;2.80;2.50;;;8.60;76.20;;;;;;5134385;27;20070;-80
2024/01/05 03:01:42;;;;;;;2.70;2.45;;;8.70;76.30;;;;;;5126813;27;20075;-80
2024/01/05 03:04:07;;;;;;;2.47;2.28;;;8.60;76.30;;;;;;5131189;27;20039;-83
2024/01/05 03:06:33;;;;;;;3.25;2.50;;;8.70;76.20;;;;;;5111617;28;20477;-80
2024/01/05 03:08:59;;;;;;;2.67;2.47;;;8.70;76.30;;;;;;5116449;28;20027;-82
2024/01/05 03:11:25;;;;;;;2.90;2.60;;;8.60;76.30;;;;;;5117020;27;20398;-81
2024/01/05 03:13:51;;;;;;;2.65;2.45;;;8.70;76.20;;;;;;5121194;27;20029;-81
2024/01/05 03:16:17;;;;;;;3.03;2.67;;;8.60;76.20;;;;;;5110765;27;20024;-81
2024/01/05 03:18:43;;;;;;;2.85;2.50;;;8.60;76.20;;;;;;5119619;27;20161;-81
2024/01/05 03:21:09;;;;;;;3.70;2.50;;;8.70;76.30;;;;;;5136631;27;20031;-80
2024/01/05 03:23:35;;;;;;;2.97;2.65;;;8.70;76.20;;;;;;5100830;27;20031;-82
2024/01/05 03:26:00;;;;;;;3.88;2.70;;;8.70;76.30;;;;;;5123404;27;20461;-79
2024/01/05 03:28:26;;;;;;;2.92;2.60;;;8.70;76.30;;;;;;5116034;27;20028;-81
2024/01/05 03:30:52;;;;;;;4.57;2.72;;;8.70;76.30;;;;;;5117232;27;20027;-81
2024/01/05 03:33:20;;;;;;;2.72;2.50;;;8.70;76.20;;;;;;5127259;27;20042;-82
2024/01/05 03:35:46;;;;;;;3.30;2.60;;;8.70;76.30;;;;;;5130822;27;20029;-81
2024/01/05 03:38:12;;;;;;;3.05;2.50;;;8.70;76.20;;;;;;5118113;27;20024;-79
2024/01/05 03:40:37;;;;;;;3.35;2.78;;;8.70;76.20;;;;;;5133047;27;20052;-81
2024/01/05 03:43:03;;;;;;;3.25;2.60;;;8.70;76.30;;;;;;5124733;27;20019;-80
2024/01/05 03:45:29;;;;;;;2.90;2.60;;;8.70;76.20;;;;;;5135599;27;20110;-81
2024/01/05 03:47:56;;;;;;;2.63;2.42;;;8.70;76.30;;;;;;5109064;28;20099;-81
2024/01/05 03:50:21;;;;;;;2.92;2.63;;;8.70;76.20;;;;;;5113679;27;20023;-79
2024/01/05 03:52:47;;;;;;;3.53;2.70;;;8.70;76.30;;;;;;5133920;27;20080;-81
2024/01/05 03:55:13;;;;;;;2.70;2.50;;;8.70;76.30;;;;;;5123993;27;20024;-80
2024/01/05 03:57:39;;;;;;;3.00;2.70;;;8.70;76.20;;;;;;5129562;27;20027;-81
2024/01/05 04:00:07;;;;;;;3.40;2.70;;;8.70;76.30;;;;;;5123185;27;20102;-82
2024/01/05 04:02:33;;;;;;;4.13;2.78;;;8.70;76.20;;;;;;5117997;27;20484;-81
2024/01/05 04:04:59;;;;;;;3.15;2.60;;;8.70;76.20;;;;;;5135000;27;20027;-81
2024/01/05 04:07:25;;;;;;;3.28;2.92;;;8.70;76.30;;;;;;5135257;27;20031;-82
2024/01/05 04:09:51;;;;;;;2.50;2.30;;;8.70;76.20;;;;;;5112732;28;20450;-80
2024/01/05 04:12:17;;;;;;;2.90;2.60;;;8.70;76.30;;;;;;5098457;28;20042;-81
2024/01/05 04:14:45;;;;;;;3.22;2.65;;;8.70;76.20;;;;;;5111221;27;20052;-81
2024/01/05 04:17:11;;;;;;;3.25;2.72;;;8.70;76.20;;;;;;5106011;28;20046;-82
2024/01/05 04:19:37;;;;;;;2.92;2.33;;;8.70;76.30;;;;;;5114971;27;20469;-81
2024/01/05 04:22:05;;;;;;;2.78;2.45;;;8.70;76.20;;;;;;5113311;27;20077;-81
2024/01/05 04:24:31;;;;;;;2.60;2.40;;;8.70;76.30;;;;;;5110185;27;20457;-81
2024/01/05 04:26:57;;;;;;;3.22;2.92;;;8.60;76.20;;;;;;5116389;27;20031;-82
2024/01/05 04:29:23;;;;;;;3.13;2.60;;;8.70;76.30;;;;;;5119223;27;20027;-82
2024/01/05 04:31:49;;;;;;;2.63;2.42;;;8.70;76.30;;;;;;5108687;28;20105;-82
2024/01/05 04:34:15;;;;;;;3.42;2.67;;;8.60;76.30;;;;;;5097649;28;20110;-81
2024/01/05 04:36:40;;;;;;;2.88;2.58;;;8.70;76.40;;;;;;5131536;27;20058;-80
2024/01/05 04:39:06;;;;;;;3.20;2.90;;;8.70;76.40;;;;;;5124979;27;20024;-81
2024/01/05 04:41:32;;;;;;;3.20;2.50;;;8.70;76.30;;;;;;5113014;27;20075;-81
2024/01/05 04:43:58;;;;;;;2.83;2.50;;;8.70;76.30;;;;;;5116916;28;20023;-80
2024/01/05 04:46:23;;;;;;;3.35;2.70;;;8.70;76.30;;;;;;5124813;27;20494;-80
2024/01/05 04:48:49;;;;;;;2.75;2.53;;;8.70;76.30;;;;;;5106914;28;20111;-80
2024/01/05 04:51:15;;;;;;;3.38;2.60;;;8.70;76.30;;;;;;5123327;28;20042;-81
2024/01/05 04:53:41;;;;;;;2.70;2.50;;;8.70;76.30;;;;;;5117872;27;20030;-80
2024/01/05 04:56:07;;;;;;;2.90;2.70;;;8.70;76.30;;;;;;5112104;28;20034;-80
2024/01/05 04:58:32;;;;;;;3.20;2.65;;;8.70;76.20;;;;;;5109335;28;20439;-80
2024/01/05 05:00:58;;;;;;;3.17;2.70;;;8.70;76.30;;;;;;5115658;28;20461;-79
2024/01/05 05:03:26;;;;;;;3.17;2.50;;;8.70;76.30;;;;;;5105670;28;20100;-80
2024/01/05 05:05:52;;;;;;;2.78;2.58;;;8.70;76.30;;;;;;5134102;28;20034;-81
2024/01/05 05:08:18;;;;;;;3.17;2.80;;;8.70;76.30;;;;;;5135466;27;20373;-81
2024/01/05 05:10:43;;;;;;;3.20;2.90;;;8.70;76.30;;;;;;5121453;28;20101;-81
2024/01/05 05:13:09;;;;;;;2.88;2.63;;;8.70;76.20;;;;;;5125791;28;20036;-80
2024/01/05 05:15:36;;;;;;;3.55;2.70;;;8.70;76.20;;;;;;5126140;28;20031;-80
2024/01/05 05:18:02;;;;;;;3.20;2.90;;;8.70;76.30;;;;;;5101566;28;20035;-80
2024/01/05 05:20:28;;;;;;;4.00;3.05;;;8.70;76.30;;;;;;5125640;27;20050;-81
2024/01/05 05:22:54;;;;;;;2.95;2.65;;;8.70;76.30;;;;;;5124898;28;20059;-80
2024/01/05 05:25:20;;;;;;;3.10;2.80;;;8.70;76.30;;;;;;5124292;28;20035;-79
2024/01/05 05:27:45;;;;;;;3.25;2.95;;;8.70;76.40;;;;;;5104549;28;20032;-80
2024/01/05 05:30:11;;;;;;;3.53;2.75;;;8.70;76.40;;;;;;5097534;28;20072;-82
2024/01/05 05:32:37;;;;;;;3.25;2.95;;;8.70;76.30;;;;;;5095513;28;20032;-81
2024/01/05 05:35:03;;;;;;;3.55;3.10;;;8.70;76.40;;;;;;5131781;27;20384;-82
2024/01/05 05:37:29;;;;;;;2.83;2.40;;;8.70;76.40;;;;;;5116562;28;20023;-80
2024/01/05 05:39:55;;;;;;;3.03;2.60;;;8.70;76.30;;;;;;5115256;28;20126;-80
2024/01/05 05:42:21;;;;;;;2.97;2.65;;;8.70;76.40;;;;;;5099475;28;20106;-79
2024/01/05 05:44:46;;;;;;;3.25;2.72;;;8.70;76.30;;;;;;5114535;28;20443;-80
2024/01/05 05:47:12;;;;;;;3.17;2.70;;;8.70;76.30;;;;;;5127081;27;20118;-80
2024/01/05 05:49:38;;;;;;;3.45;2.97;;;8.70;76.30;;;;;;5112834;27;20118;-80
2024/01/05 05:52:05;;;;;;;3.60;3.08;;;8.70;76.40;;;;;;5116815;28;20046;-80
2024/01/05 05:54:31;;;;;;;3.88;3.17;;;8.70;76.30;;;;;;5114804;28;20031;-81
2024/01/05 05:56:57;;;;;;;4.30;3.58;;;8.70;76.30;;;;;;5102593;28;20027;-80
2024/01/05 05:59:23;;;;;;;3.53;3.20;;;8.70;76.30;;;;;;5108108;28;20035;-81
2024/01/05 06:01:49;;;;;;;4.47;3.50;;;8.70;76.20;;;;;;5100380;28;20032;-82
2024/01/05 06:04:15;;;;;;;4.90;3.50;;;8.70;76.20;;;;;;5130062;27;20377;-81
2024/01/05 06:06:41;;;;;;;4.68;3.63;;;8.80;76.20;;;;;;5118392;27;20024;-80
2024/01/05 06:09:07;;;;;;;4.78;3.78;;;8.70;76.20;;;;;;5123463;27;20459;-80
2024/01/05 06:11:33;;;;;;;4.82;3.75;;;8.80;76.20;;;;;;5137524;27;20114;-82
2024/01/05 06:13:59;;;;;;;4.85;3.70;;;8.80;76.20;;;;;;5113435;28;20127;-80
2024/01/05 06:16:25;;;;;;;4.70;3.50;;;8.80;76.20;;;;;;5135712;27;20164;-80
2024/01/05 06:18:51;;;;;;;5.05;3.65;;;8.80;76.20;;;;;;5128333;27;20028;-80
2024/01/05 06:21:17;;;;;;;4.72;3.88;;;8.80;76.20;;;;;;5117618;28;20485;-81
2024/01/05 06:23:43;;;;;;;4.38;3.40;;;8.80;76.20;;;;;;5133517;27;20376;-80
2024/01/05 06:26:08;;;;;;;3.70;3.10;;;8.70;76.10;;;;;;5118703;27;20031;-80
2024/01/05 06:28:34;;;;;;;3.95;3.47;;;8.80;76.20;;;;;;5108585;28;20024;-80
2024/01/05 06:31:00;;;;;;;3.65;3.17;;;8.70;76.20;;;;;;5118021;27;20027;-81
2024/01/05 06:33:25;;;;;;;3.92;3.42;;;8.80;76.20;;;;;;5119636;27;20491;-81
2024/01/05 06:35:51;;;;;;;3.78;3.35;;;8.80;76.20;;;;;;5124970;27;20027;-81
2024/01/05 06:38:17;;;;;;;3.85;3.10;;;8.80;76.20;;;;;;5135910;27;20031;-80
2024/01/05 06:40:43;;;;;;;3.83;3.13;;;8.80;76.20;;;;;;5135625;27;20030;-80
2024/01/05 06:43:09;;;;;;;5.25;3.90;;;8.80;76.20;;;;;;5113822;28;20072;-79
2024/01/05 06:45:34;;;;;;;3.40;3.10;;;8.80;76.20;;;;;;5121401;27;20489;-82
2024/01/05 06:48:00;;;;;;;3.17;2.88;;;8.80;76.20;;;;;;5137319;27;20054;-81
2024/01/05 06:50:27;;;;;;;4.20;3.30;;;8.80;76.20;;;;;;5133944;27;20054;-81
2024/01/05 06:52:53;;;;;;;3.00;2.70;;;8.80;76.20;;;;;;5120244;27;20036;-81
2024/01/05 06:55:19;;;;;;;4.38;3.08;;;8.80;76.10;;;;;;5117643;27;20046;-80
2024/01/05 06:57:46;;;;;;;4.00;3.15;;;8.80;76.10;;;;;;5107336;27;20405;-80
2024/01/05 07:00:12;;;;;;;4.35;3.00;;;8.80;76.10;;;;;;5109891;28;20380;-80
2024/01/05 07:02:38;;;;;;;3.10;2.75;;;8.80;76.10;;;;;;5133065;27;20039;-81
2024/01/05 07:05:04;;;;;;;3.70;2.80;;;8.80;76.10;;;;;;5119933;27;20035;-81
2024/01/05 07:07:30;;;;;;;3.40;3.00;;;8.80;76.10;;;;;;5129257;27;20046;-81
2024/01/05 07:09:56;;;;;;;3.22;2.92;;;8.80;76.10;;;;;;5116345;28;20103;-80
2024/01/05 07:12:22;;;;;;;3.40;2.92;;;8.80;76.10;;;;;;5133957;27;20117;-80
2024/01/05 07:14:48;;;;;;;3.10;2.80;;;8.80;76.10;;;;;;5135897;27;20098;-81
2024/01/05 07:17:14;;;;;;;3.90;2.83;;;8.80;76.10;;;;;;5128105;27;20106;-80
2024/01/05 07:19:40;;;;;;;3.60;2.88;;;8.80;76.10;;;;;;5121207;27;20042;-81
2024/01/05 07:22:09;;;;;;;3.17;2.65;;;8.90;76.10;;;;;;5115685;27;20027;-80
2024/01/05 07:24:37;;;;;;;3.30;2.75;;;8.80;76.00;;;;;;5136904;27;20055;-81
2024/01/05 07:27:04;;;;;;;2.92;2.60;;;8.90;76.00;;;;;;5124266;27;20028;-82
2024/01/05 07:29:29;;;;;;;3.17;2.70;;;8.90;76.00;;;;;;5133199;27;20436;-81
2024/01/05 07:31:55;;;;;;;3.53;2.90;;;8.90;76.00;;;;;;5117200;27;20063;-82
2024/01/05 07:34:21;;;;;;;3.50;2.90;;;8.90;76.00;;;;;;5098128;28;20045;-82
2024/01/05 07:36:47;;;;;;;3.00;2.70;;;8.90;76.00;;;;;;5116971;27;20024;-80
2024/01/05 07:39:13;;;;;;;3.47;2.90;;;8.90;75.90;;;;;;5114348;28;20445;-84
2024/01/05 07:41:39;;;;;;;3.47;2.80;;;8.90;76.00;;;;;;5116095;27;20461;-84
2024/01/05 07:44:05;;;;;;;2.88;2.55;;;9.00;76.00;;;;;;5116123;27;20446;-85
2024/01/05 07:46:31;;;;;;;2.80;2.60;;;9.00;76.00;;;;;;5118395;27;20019;-85
2024/01/05 07:48:57;;;;;;;3.47;2.97;;;8.90;76.00;;;;;;5099197;28;20358;-85
2024/01/05 07:51:23;;;;;;;3.33;2.92;;;9.00;76.00;;;;;;5121542;27;20035;-83
2024/01/05 07:53:50;;;;;;;5.35;2.65;;;9.00;75.90;;;;;;5115941;28;20019;-82
2024/01/05 07:56:17;;;;;;;3.17;2.72;;;9.00;75.80;;;;;;5110780;27;20024;-81
2024/01/05 07:58:44;;;;;;;3.17;2.88;;;9.00;75.90;;;;;;5117435;27;20041;-83
2024/01/05 08:01:20;;;;;;;2.78;2.40;;;9.10;75.80;;;;;;5106745;28;20032;-82
2024/01/05 08:03:47;;;;;;;2.90;2.50;;;9.10;75.80;;;;;;5114464;28;20051;-91
2024/01/05 08:06:17;;;;;;;3.00;2.70;;;9.20;75.70;;;;;;5109719;27;20035;-91
2024/01/05 08:08:50;;;;;;;2.97;2.53;;;9.10;75.60;;;;;;5130268;27;20090;-89
2024/01/05 08:11:16;;;;;;;2.90;2.60;;;9.20;76.10;;;;;;5149196;27;20476;-86
2024/01/05 08:13:43;;;;;;;2.65;2.45;;;9.20;75.50;;;;;;5146592;27;20145;-86
2024/01/05 08:16:10;;;;;;;2.88;2.58;;;9.20;75.50;;;;;;5138392;27;20064;-90
2024/01/05 08:18:36;;;;;;;2.60;2.40;;;9.20;75.40;;;;;;5119412;27;20079;-84
2024/01/05 08:21:02;;;;;;;3.65;2.53;;;9.20;75.40;;;;;;5135133;27;20027;-81
2024/01/05 08:23:37;;;;;;;2.70;2.50;;;9.30;75.40;;;;;;5113137;28;20488;-82
2024/01/05 08:26:07;;;;;;;2.78;2.42;;;9.30;75.30;;;;;;5114550;27;20051;-81
2024/01/05 08:28:34;;;;;;;2.65;2.38;;;9.30;75.20;;;;;;5111156;28;20027;-78
2024/01/05 08:30:59;;;;;;;2.42;2.22;;;9.30;75.20;;;;;;5098464;28;20382;-81
2024/01/05 08:33:25;;;;;;;2.72;2.30;;;9.40;75.10;;;;;;5132407;27;20039;-82
2024/01/05 08:35:51;;;;;;;2.40;2.20;;;9.40;75.10;;;;;;5119847;27;20021;-80
2024/01/05 08:38:17;;;;;;;2.65;2.42;;;9.40;75.00;;;;;;5106843;28;20023;-81
2024/01/05 08:40:44;;;;;;;3.38;2.30;;;9.40;75.00;;;;;;5114787;28;20123;-80
2024/01/05 08:43:10;;;;;;;2.40;2.20;;;9.40;74.90;;;;;;5129332;27;20030;-82
2024/01/05 08:45:36;;;;;;;2.40;2.20;;;9.40;74.90;;;;;;5116529;27;20370;-78
2024/01/05 08:48:02;;;;;;;2.40;2.20;;;9.30;74.70;;;;;;5117980;27;20108;-78
2024/01/05 08:50:27;;;;;;;2.60;2.30;;;9.30;74.60;;;;;;5114688;28;20020;-78
2024/01/05 08:52:53;;;;;;;2.42;2.22;;;9.30;74.70;;;;;;5113140;28;20032;-77
2024/01/05 08:55:19;;;;;;;2.58;2.38;;;9.30;74.70;;;;;;5101734;28;20168;-78
2024/01/05 08:57:47;;;;;;;2.60;2.40;;;9.30;74.70;;;;;;5116073;28;20038;-84
2024/01/05 09:00:13;;;;;;;2.20;2.10;;;9.30;74.70;;;;;;5114984;28;20072;-81
2024/01/05 09:02:39;;;;;;;2.30;2.10;;;9.30;74.70;;;;;;5114779;28;20392;-80
2024/01/05 09:05:05;;;;;;;2.20;2.10;;;9.30;74.70;;;;;;5113098;28;20047;-75
2024/01/05 09:07:34;;;;;;;2.47;2.28;;;9.40;74.70;;;;;;5109567;28;20373;-79
2024/01/05 09:10:01;;;;;;;2.30;2.20;;;9.30;74.60;;;;;;5115392;28;20028;-76
2024/01/05 09:12:27;;;;;;;3.42;2.10;;;9.30;74.60;;;;;;5125517;28;20036;-76
2024/01/05 09:14:53;;;;;;;2.30;2.10;;;9.30;74.50;;;;;;5113832;28;20401;-77
2024/01/05 09:17:19;;;;;;;2.55;2.35;;;9.30;74.60;;;;;;5102872;28;20030;-77
2024/01/05 09:19:45;;;;;;;2.50;2.30;;;9.30;74.60;;;;;;5095769;28;20024;-78
2024/01/05 09:22:11;;;;;;;2.42;2.20;;;9.20;74.50;;;;;;5114082;28;20374;-75
2024/01/05 09:24:37;;;;;;;2.40;2.20;;;9.30;74.50;;;;;;5112821;28;20030;-74
2024/01/05 09:27:04;;;;;;;2.50;2.30;;;9.30;74.50;;;;;;5115160;28;20521;-75
2024/01/05 09:29:33;;;;;;;2.25;2.05;;;9.20;74.50;;;;;;5113657;28;20042;-74
2024/01/05 09:32:00;;;;;;;2.35;2.15;;;9.20;74.60;;;;;;5111103;28;20035;-73
2024/01/05 09:34:25;;;;;;;2.30;2.10;;;9.20;74.60;;;;;;5127898;27;20031;-75
2024/01/05 09:36:53;;;;;;;2.40;2.20;;;9.20;75.20;;;;;;5108874;28;20389;-76
2024/01/05 09:39:19;;;;;;;2.33;2.15;;;9.20;74.60;;;;;;5117784;28;20077;-73
2024/01/05 09:41:48;;;;;;;2.40;2.20;;;9.20;74.60;;;;;;5124955;27;20034;-72
2024/01/05 09:44:16;;;;;;;4.32;3.65;;;9.20;74.60;;;;;;5124569;27;20404;-76
2024/01/05 09:46:43;;;;;;;51.72;37.80;;;9.20;74.80;;;;;;5121961;27;20074;-75
2024/01/05 09:49:09;;;;;;;14.13;8.45;;;9.10;75.10;;;;;;5119836;27;20080;-74
2024/01/05 09:51:36;;;;;;;4.07;2.50;;;9.20;75.70;;;;;;5138212;27;20066;-72
2024/01/05 09:54:03;;;;;;;2.50;2.30;;;9.40;77.50;;;;;;5108660;28;20064;-74
2024/01/05 09:56:29;;;;;;;2.30;2.08;;;9.60;76.80;;;;;;5101447;27;20068;-74
2024/01/05 09:58:55;;;;;;;2.10;2.00;;;9.80;76.10;;;;;;5119062;27;20027;-77
2024/01/05 10:01:26;;;;;;;2.75;2.15;;;9.90;75.70;;;;;;5137033;27;20051;-73
2024/01/05 10:04:09;;;;;;;2.20;2.00;;;10.00;75.30;;;;;;5135994;27;20039;-73
2024/01/05 10:06:35;;;;;;;2.28;2.10;;;10.00;75.10;;;;;;5134520;27;20050;-76
2024/01/05 10:09:01;;;;;;;2.10;2.00;;;10.00;74.80;;;;;;5111314;28;20462;-75
2024/01/05 10:11:31;;;;;;;1.95;1.85;;;10.00;74.50;;;;;;5116875;28;20461;-75
2024/01/05 10:14:05;;;;;;;2.30;2.10;;;9.90;74.40;;;;;;5098926;28;20027;-74
2024/01/05 10:16:38;;;;;;;2.05;1.95;;;9.90;74.30;;;;;;5106367;27;20027;-74
2024/01/05 10:19:15;;;;;;;2.20;2.00;;;9.90;74.20;;;;;;5119613;27;20027;-75
2024/01/05 10:21:43;;;;;;;2.33;2.13;;;9.80;74.00;;;;;;5119030;27;20035;-76
2024/01/05 10:24:30;;;;;;;2.25;2.08;;;9.80;74.00;;;;;;5119196;27;20099;-75
2024/01/05 10:27:02;;;;;;;2.05;1.95;;;9.70;73.70;;;;;;5116822;28;20024;-76
2024/01/05 10:29:28;;;;;;;2.40;2.20;;;9.70;73.70;;;;;;5116944;28;20064;-74
2024/01/05 10:32:08;;;;;;;2.28;2.08;;;9.70;73.60;;;;;;5116661;28;20035;-77
2024/01/05 10:34:34;;;;;;;2.20;2.10;;;9.60;73.40;;;;;;5117339;28;20020;-75
2024/01/05 10:37:04;;;;;;;2.40;2.20;;;9.60;73.30;;;;;;5105938;27;20029;-76
2024/01/05 10:39:30;;;;;;;2.50;2.30;;;9.60;73.30;;;;;;5124963;27;20023;-75
2024/01/05 10:42:20;;;;;;;2.30;2.10;;;9.50;73.10;;;;;;5115572;28;20028;-73
2024/01/05 10:44:51;;;;;;;2.10;2.00;;;9.50;73.00;;;;;;5110124;28;20026;-75
2024/01/05 10:47:21;;;;;;;23.38;14.43;;;9.40;72.90;;;;;;5125609;27;20034;-73
2024/01/05 10:49:50;;;;;;;91.88;65.68;;;9.40;73.00;;;;;;5113118;28;20042;-72
2024/01/05 10:52:17;;;;;;;50.28;32.85;;;9.40;73.00;;;;;;5097913;28;20032;-72
2024/01/05 10:54:45;;;;;;;37.38;23.27;;;9.30;73.00;;;;;;5102215;28;20157;-71
2024/01/05 10:57:13;;;;;;;18.70;13.07;;;9.30;72.90;;;;;;5126300;27;20019;-71
2024/01/05 10:59:39;;;;;;;9.63;6.40;;;9.20;72.80;;;;;;5111349;27;20054;-71
2024/01/05 11:02:15;;;;;;;6.20;4.20;;;9.20;72.80;;;;;;5135737;27;20127;-72
2024/01/05 11:04:44;;;;;;;3.72;3.08;;;9.20;73.40;;;;;;5136744;27;20050;-74
2024/01/05 11:07:14;;;;;;;2.97;2.65;;;9.10;72.70;;;;;;5118722;27;20048;-72
2024/01/05 11:10:18;;;;;;;2.70;2.50;;;9.10;72.70;;;;;;5114984;28;20020;-72
2024/01/05 11:13:00;;;;;;;2.92;2.60;;;9.00;72.60;;;;;;5106373;28;20032;-72
2024/01/05 11:15:46;;;;;;;2.40;2.20;;;9.00;72.70;;;;;;5117661;27;20055;-74
2024/01/05 11:18:50;;;;;;;2.38;2.00;;;8.90;72.60;;;;;;5117990;27;20027;-73
2024/01/05 11:21:22;;;;;;;2.40;2.20;;;8.80;72.50;;;;;;5117960;27;20027;-73
2024/01/05 11:23:49;;;;;;;2.38;2.17;;;8.80;72.50;;;;;;5114008;28;20024;-74
2024/01/05 11:26:39;;;;;;;2.13;2.00;;;8.80;72.60;;;;;;5112265;28;20031;-73
2024/01/05 11:29:05;;;;;;;2.47;2.28;;;8.70;72.50;;;;;;5101115;28;20054;-72
2024/01/05 11:31:45;;;;;;;2.60;2.40;;;8.60;72.60;;;;;;5113686;28;20067;-74
2024/01/05 11:34:31;;;;;;;2.20;2.10;;;8.60;72.70;;;;;;5111521;27;20031;-73
2024/01/05 11:36:57;;;;;;;2.17;2.08;;;8.50;72.60;;;;;;5129639;27;20426;-72
2024/01/05 11:39:45;;;;;;;2.72;2.53;;;8.50;72.80;;;;;;5120250;27;20023;-73
2024/01/05 11:42:33;;;;;;;2.30;2.20;;;8.50;72.70;;;;;;5098739;27;20066;-74
2024/01/05 11:45:01;;;;;;;2.00;1.90;;;8.50;72.70;;;;;;5113365;28;20123;-72
2024/01/05 11:47:43;;;;;;;2.78;2.25;;;8.40;72.70;;;;;;5115181;28;20032;-73
2024/01/05 11:50:28;;;;;;;2.05;1.95;;;8.40;72.70;;;;;;5115095;28;20026;-72
2024/01/05 11:53:15;;;;;;;2.35;2.15;;;8.40;72.80;;;;;;5115284;28;20035;-71
2024/01/05 11:55:52;;;;;;;2.10;2.00;;;8.40;72.90;;;;;;5109883;28;20042;-73
2024/01/05 11:58:19;;;;;;;2.40;2.20;;;8.40;72.90;;;;;;5118464;27;20080;-71
2024/01/05 12:00:46;;;;;;;2.20;2.10;;;8.40;73.00;;;;;;5117012;27;20057;-74
2024/01/05 12:03:14;;;;;;;2.40;2.20;;;8.30;73.00;;;;;;5135527;27;20052;-72
2024/01/05 12:05:39;;;;;;;2.10;2.00;;;8.40;73.00;;;;;;5113451;28;20480;-71
2024/01/05 12:08:11;;;;;;;3.42;2.50;;;8.40;73.00;;;;;;5114022;28;20023;-73
2024/01/05 12:10:39;;;;;;;4.07;3.17;;;8.40;74.70;;;;;;5112170;27;20028;-73
2024/01/05 12:13:05;;;;;;;3.38;3.08;;;8.60;75.20;;;;;;5116644;27;20130;-71
2024/01/05 12:15:32;;;;;;;2.50;2.30;;;8.80;74.50;;;;;;5133793;27;20054;-73
2024/01/05 12:18:03;;;;;;;2.50;2.30;;;8.90;74.00;;;;;;5135607;27;20023;-71
2024/01/05 12:20:29;;;;;;;2.38;2.17;;;8.90;73.60;;;;;;5116695;27;20051;-72
2024/01/05 12:22:55;;;;;;;2.20;2.10;;;9.00;73.30;;;;;;5116729;27;20066;-72
2024/01/05 12:25:21;;;;;;;2.50;2.15;;;8.90;73.30;;;;;;5116388;27;20439;-72
2024/01/05 12:27:47;;;;;;;2.30;2.10;;;8.90;73.30;;;;;;5116469;27;20015;-73
2024/01/05 12:30:16;;;;;;;2.10;1.90;;;8.80;73.20;;;;;;5116835;27;20029;-73
2024/01/05 12:32:43;;;;;;;2.20;2.00;;;8.80;73.30;;;;;;5112851;28;20039;-73
2024/01/05 12:35:10;;;;;;;2.05;1.92;;;8.80;73.30;;;;;;5112824;28;20031;-73
2024/01/05 12:37:36;;;;;;;2.00;1.90;;;8.80;73.20;;;;;;5113375;28;20118;-74
2024/01/05 12:40:11;;;;;;;1.98;1.88;;;8.80;73.30;;;;;;5114192;28;20419;-71
2024/01/05 12:42:40;;;;;;;2.25;2.10;;;8.80;73.30;;;;;;5113098;28;20028;-73
2024/01/05 12:45:10;;;;;;;2.45;2.25;;;8.70;73.20;;;;;;5116479;27;20027;-73
2024/01/05 12:47:36;;;;;;;2.30;2.10;;;8.70;73.30;;;;;;5125451;27;20031;-74
2024/01/05 12:50:05;;;;;;;2.00;1.90;;;8.70;73.30;;;;;;5112047;28;20036;-72
2024/01/05 12:52:36;;;;;;;2.30;2.10;;;8.70;73.30;;;;;;5112505;28;20059;-71
2024/01/05 12:55:03;;;;;;;2.33;2.13;;;8.70;73.30;;;;;;5112748;28;20030;-72
2024/01/05 12:57:31;;;;;;;2.00;1.90;;;8.70;73.40;;;;;;5121738;27;20057;-71